LFRB 221130Z AUTO 23014KT 2400 -RADZ BR OVC004 11/10 Q1029 BECMG 22015G25KT 9999 NSW OVC010

ElémentsDécodage
LFRB Station météo située sur l'aérodrome de BREST Guipavas
221130Z émis le 22 du mois à 11h30 UTC
AUTO Bulletin édité par un automate
23014KT vent du 230°, 14 noeuds
2400 visibilité horizontale de 2400 mètres
-RADZ faible pluie, bruine
BR brume
OVC004 couverture nuageuse totale (8/8) à 400 pieds
11/10 température 11°C, point de rosée 10°C
 soit une humidité relative de 94%
Q1029 la pression au niveau de la mer (QNH) est de 1029 hPa
BECMG fluctuation du temps prévue
22015G25KT vent du 220°, moyenne: 15 noeuds, avec rafales à 25 noeuds
9999 visibilité horizontale supérieure à 10 Km
NSW pas de temps significatif
OVC010 couverture nuageuse totale (8/8) à 1000 pieds